createdAt,value
2023-04-28T00:00:02.968Z,4.78
2023-04-28T00:02:30.895Z,4.43
2023-04-28T00:04:58.988Z,4.55
2023-04-28T00:07:26.974Z,4.50
2023-04-28T00:09:54.797Z,4.50
2023-04-28T00:12:22.562Z,4.80
2023-04-28T00:14:51.776Z,4.07
2023-04-28T00:17:19.627Z,4.00
2023-04-28T00:19:47.397Z,3.78
2023-04-28T00:22:15.387Z,4.30
2023-04-28T00:24:43.240Z,5.97
2023-04-28T00:27:11.293Z,3.80
2023-04-28T00:29:39.104Z,3.50
2023-04-28T00:32:08.416Z,3.42
2023-04-28T00:34:37.282Z,3.30
2023-04-28T00:37:05.209Z,3.80
2023-04-28T00:39:33.017Z,3.45
2023-04-28T00:42:01.998Z,3.38
2023-04-28T00:44:29.795Z,3.30
2023-04-28T00:46:58.870Z,3.10
2023-04-28T00:49:28.287Z,2.85
2023-04-28T00:51:56.087Z,3.22
2023-04-28T00:54:24.209Z,3.08
2023-04-28T00:56:52.085Z,3.37
2023-04-28T00:59:19.810Z,3.00
2023-04-28T01:01:47.728Z,3.22
2023-04-28T01:04:16.271Z,3.13
2023-04-28T01:06:46.446Z,3.20
2023-04-28T01:09:14.356Z,4.17
2023-04-28T01:11:42.104Z,3.20
2023-04-28T01:14:09.861Z,3.95
2023-04-28T01:16:38.960Z,3.30
2023-04-28T01:19:09.058Z,3.57
2023-04-28T01:21:36.994Z,3.80
2023-04-28T01:24:07.602Z,3.10
2023-04-28T01:26:35.356Z,2.95
2023-04-28T01:29:03.164Z,3.42
2023-04-28T01:31:31.519Z,3.30
2023-04-28T01:33:59.688Z,3.30
2023-04-28T01:36:28.489Z,3.13
2023-04-28T01:38:56.322Z,3.67
2023-04-28T01:41:25.506Z,3.83
2023-04-28T01:43:53.264Z,3.85
2023-04-28T01:46:21.205Z,3.30
2023-04-28T01:48:49.250Z,3.15
2023-04-28T01:51:17.247Z,3.10
2023-04-28T01:53:45.178Z,3.20
2023-04-28T01:56:13.002Z,3.25
2023-04-28T01:58:42.105Z,3.80
2023-04-28T02:01:10.000Z,3.40
2023-04-28T02:03:38.056Z,3.40
2023-04-28T02:06:06.213Z,3.80
2023-04-28T02:08:34.039Z,3.80
2023-04-28T02:11:03.803Z,4.38
2023-04-28T02:13:31.565Z,3.55
2023-04-28T02:16:02.902Z,3.30
2023-04-28T02:18:31.176Z,3.33
2023-04-28T02:20:58.964Z,3.17
2023-04-28T02:23:26.767Z,3.53
2023-04-28T02:26:03.521Z,3.63
2023-04-28T02:28:31.305Z,3.33
2023-04-28T02:31:07.100Z,3.25
2023-04-28T02:33:35.008Z,3.10
2023-04-28T02:36:03.455Z,3.50
2023-04-28T02:38:31.556Z,3.20
2023-04-28T02:41:00.810Z,3.03
2023-04-28T02:43:28.925Z,3.47
2023-04-28T02:45:56.867Z,3.15
2023-04-28T02:48:26.414Z,3.55
2023-04-28T02:50:54.390Z,3.97
2023-04-28T02:53:23.343Z,3.60
2023-04-28T02:55:51.251Z,3.55
2023-04-28T02:58:19.168Z,3.58
2023-04-28T03:00:47.092Z,3.60
2023-04-28T03:03:15.213Z,3.28
2023-04-28T03:05:44.494Z,3.00
2023-04-28T03:08:12.248Z,3.35
2023-04-28T03:10:40.096Z,3.47
2023-04-28T03:13:08.079Z,2.97
2023-04-28T03:15:36.007Z,3.03
2023-04-28T03:18:03.961Z,3.03
2023-04-28T03:20:31.778Z,3.10
2023-04-28T03:23:01.857Z,3.17
2023-04-28T03:25:29.666Z,3.53
2023-04-28T03:27:57.417Z,3.65
2023-04-28T03:30:25.188Z,3.40
2023-04-28T03:32:53.232Z,3.00
2023-04-28T03:35:21.486Z,3.17
2023-04-28T03:37:49.318Z,3.47
2023-04-28T03:40:18.477Z,4.00
2023-04-28T03:42:46.854Z,3.10
2023-04-28T03:45:14.625Z,2.90
2023-04-28T03:47:42.488Z,3.95
2023-04-28T03:50:10.689Z,3.25
2023-04-28T03:52:38.702Z,2.90
2023-04-28T03:55:07.247Z,3.37
2023-04-28T03:57:36.540Z,2.83
2023-04-28T04:00:05.236Z,3.00
2023-04-28T04:02:33.284Z,2.83
2023-04-28T04:05:01.331Z,3.10
2023-04-28T04:07:29.326Z,3.10
2023-04-28T04:09:57.150Z,4.03
2023-04-28T04:12:24.968Z,3.20
2023-04-28T04:14:54.065Z,3.47
2023-04-28T04:17:21.924Z,3.58
2023-04-28T04:19:49.729Z,3.45
2023-04-28T04:22:17.492Z,3.63
2023-04-28T04:24:45.293Z,4.20
2023-04-28T04:27:13.121Z,4.57
2023-04-28T04:29:41.033Z,3.60
2023-04-28T04:32:10.217Z,3.58
2023-04-28T04:34:37.978Z,3.78
2023-04-28T04:37:06.034Z,3.60
2023-04-28T04:39:33.873Z,3.80
2023-04-28T04:42:13.315Z,3.78
2023-04-28T04:44:50.582Z,4.65
2023-04-28T04:47:20.205Z,4.22
2023-04-28T04:49:48.554Z,4.00
2023-04-28T04:52:16.378Z,4.00
2023-04-28T04:54:44.164Z,4.07
2023-04-28T04:57:12.928Z,4.32
2023-04-28T04:59:40.980Z,4.28
2023-04-28T05:02:08.805Z,4.28
2023-04-28T05:04:38.065Z,4.03
2023-04-28T05:07:05.987Z,3.97
2023-04-28T05:09:33.948Z,3.80
2023-04-28T05:12:01.923Z,4.05
2023-04-28T05:14:29.691Z,3.60
2023-04-28T05:16:57.695Z,4.10
2023-04-28T05:19:25.624Z,4.20
2023-04-28T05:21:55.049Z,3.50
2023-04-28T05:24:23.881Z,4.18
2023-04-28T05:26:52.167Z,4.00
2023-04-28T05:29:20.042Z,3.70
2023-04-28T05:31:47.975Z,3.60
2023-04-28T05:34:16.076Z,4.10
2023-04-28T05:36:45.728Z,3.70
2023-04-28T05:39:14.877Z,3.85
2023-04-28T05:41:42.804Z,3.75
2023-04-28T05:44:10.595Z,3.80
2023-04-28T05:46:38.575Z,3.50
2023-04-28T05:49:06.556Z,5.10
2023-04-28T05:51:34.759Z,3.70
2023-04-28T05:54:02.593Z,3.70
2023-04-28T05:56:31.895Z,4.47
2023-04-28T05:59:03.909Z,3.55
2023-04-28T06:01:32.004Z,3.50
2023-04-28T06:04:00.148Z,3.17
2023-04-28T06:06:28.805Z,3.90
2023-04-28T06:08:57.132Z,3.60
2023-04-28T06:11:24.918Z,4.38
2023-04-28T06:13:54.028Z,3.05
2023-04-28T06:16:23.347Z,3.08
2023-04-28T06:18:51.364Z,3.30
2023-04-28T06:21:21.809Z,3.20
2023-04-28T06:23:49.933Z,3.58
2023-04-28T06:26:18.533Z,3.40
2023-04-28T06:28:46.616Z,4.82
2023-04-28T06:31:16.351Z,3.08
2023-04-28T06:33:44.159Z,3.42
2023-04-28T06:36:13.985Z,2.85
2023-04-28T06:38:42.886Z,3.55
2023-04-28T06:41:11.025Z,3.10
2023-04-28T06:43:39.079Z,3.20
2023-04-28T06:46:07.089Z,2.78
2023-04-28T06:48:36.378Z,2.58
2023-04-28T06:51:04.795Z,2.55
2023-04-28T06:53:32.639Z,3.63
2023-04-28T06:56:00.458Z,2.65
2023-04-28T06:58:28.514Z,4.50
2023-04-28T07:00:56.418Z,2.50
2023-04-28T07:03:24.403Z,3.17
2023-04-28T07:05:53.702Z,2.15
2023-04-28T07:08:21.528Z,1.92
2023-04-28T07:10:49.357Z,1.95
2023-04-28T07:13:17.270Z,2.67
2023-04-28T07:15:45.072Z,2.20
2023-04-28T07:18:12.987Z,2.30
2023-04-28T07:20:40.897Z,2.00
2023-04-28T07:23:10.022Z,3.60
2023-04-28T07:25:38.219Z,1.83
2023-04-28T07:28:06.806Z,2.17
2023-04-28T07:30:34.642Z,2.90
2023-04-28T07:33:03.153Z,2.23
2023-04-28T07:35:31.024Z,2.58
2023-04-28T07:37:59.176Z,2.07
2023-04-28T07:40:28.274Z,3.22
2023-04-28T07:42:56.500Z,2.05
2023-04-28T07:45:24.461Z,2.10
2023-04-28T07:47:52.270Z,2.00
2023-04-28T07:50:20.169Z,3.40
2023-04-28T07:52:47.959Z,2.28
2023-04-28T07:55:16.014Z,4.35
2023-04-28T07:57:45.225Z,2.10
2023-04-28T08:00:14.133Z,2.87
2023-04-28T08:02:42.325Z,2.63
2023-04-28T08:05:11.332Z,2.70
2023-04-28T08:07:39.420Z,2.20
2023-04-28T08:10:11.641Z,2.38
2023-04-28T08:12:40.780Z,2.05
2023-04-28T08:15:10.571Z,2.53
2023-04-28T08:17:38.907Z,2.50
2023-04-28T08:20:08.774Z,2.70
2023-04-28T08:22:36.595Z,3.13
2023-04-28T08:25:04.698Z,2.65
2023-04-28T08:27:34.022Z,3.35
2023-04-28T08:30:01.833Z,3.67
2023-04-28T08:32:31.103Z,3.05
2023-04-28T08:34:58.956Z,3.45
2023-04-28T08:37:27.775Z,3.08
2023-04-28T08:40:02.175Z,2.70
2023-04-28T08:42:31.204Z,2.47
2023-04-28T08:45:00.254Z,2.75
2023-04-28T08:47:35.490Z,3.03
2023-04-28T08:50:08.292Z,2.40
2023-04-28T08:52:36.724Z,3.22
2023-04-28T08:55:08.716Z,2.45
2023-04-28T08:57:41.379Z,2.30
2023-04-28T09:00:10.513Z,2.58
2023-04-28T09:02:42.342Z,2.33
2023-04-28T09:05:11.571Z,2.33
2023-04-28T09:07:40.220Z,2.35
2023-04-28T09:10:22.086Z,2.83
2023-04-28T09:12:52.980Z,2.10
2023-04-28T09:15:30.600Z,2.00
2023-04-28T09:18:01.867Z,2.30
2023-04-28T09:20:31.613Z,1.80
2023-04-28T09:23:14.743Z,2.60
2023-04-28T09:25:56.174Z,3.90
2023-04-28T09:28:24.328Z,3.70
2023-04-28T09:30:52.303Z,2.10
2023-04-28T09:33:22.030Z,1.93
2023-04-28T09:35:50.305Z,2.23
2023-04-28T09:38:19.468Z,2.00
2023-04-28T09:40:54.322Z,2.35
2023-04-28T09:43:26.776Z,3.10
2023-04-28T09:45:55.446Z,2.47
2023-04-28T09:48:32.643Z,3.28
2023-04-28T09:51:01.515Z,2.08
2023-04-28T09:53:30.250Z,2.97
2023-04-28T09:55:59.157Z,2.13
2023-04-28T09:58:28.956Z,3.28
2023-04-28T10:00:58.148Z,2.63
2023-04-28T10:03:29.562Z,2.58
2023-04-28T10:06:00.323Z,2.37
2023-04-28T10:08:28.416Z,2.17
2023-04-28T10:10:57.750Z,2.42
2023-04-28T10:13:26.535Z,2.78
2023-04-28T10:15:55.918Z,2.33
2023-04-28T10:18:24.943Z,2.90
2023-04-28T10:20:58.735Z,2.83
2023-04-28T10:23:54.018Z,2.25
2023-04-28T10:26:23.813Z,2.35
2023-04-28T10:28:53.065Z,2.35
2023-04-28T10:31:22.962Z,3.20
2023-04-28T10:33:51.364Z,2.38
2023-04-28T10:36:50.736Z,1.52
2023-04-28T10:39:20.222Z,1.63
2023-04-28T10:41:49.044Z,1.83
2023-04-28T10:44:44.781Z,2.08
2023-04-28T10:47:12.766Z,2.22
2023-04-28T10:50:06.895Z,2.35
2023-04-28T10:52:51.476Z,2.20
2023-04-28T10:55:33.152Z,1.80
2023-04-28T10:58:36.257Z,3.60
2023-04-28T11:01:27.440Z,1.63
2023-04-28T11:04:02.829Z,3.03
2023-04-28T11:06:34.264Z,1.35
2023-04-28T11:09:03.867Z,1.33
2023-04-28T11:11:34.991Z,1.40
2023-04-28T11:14:34.922Z,2.70
2023-04-28T11:17:04.359Z,1.83
2023-04-28T11:19:34.082Z,3.25
2023-04-28T11:22:04.434Z,2.95
2023-04-28T11:24:32.462Z,2.75
2023-04-28T11:27:02.123Z,3.70
2023-04-28T11:29:34.359Z,2.13
2023-04-28T11:32:02.281Z,2.22
2023-04-28T11:34:30.448Z,1.90
2023-04-28T11:36:58.367Z,2.77
2023-04-28T11:39:30.082Z,2.17
2023-04-28T11:41:58.441Z,2.28
2023-04-28T11:44:29.348Z,2.28
2023-04-28T11:47:00.698Z,3.63
2023-04-28T11:49:30.202Z,2.47
2023-04-28T11:52:00.152Z,1.65
2023-04-28T11:54:29.457Z,1.30
2023-04-28T11:56:58.824Z,1.80
2023-04-28T11:59:29.319Z,1.52
2023-04-28T12:01:59.282Z,1.48
2023-04-28T12:04:28.758Z,1.85
2023-04-28T12:07:04.692Z,1.70
2023-04-28T12:09:33.554Z,1.92
2023-04-28T12:12:03.509Z,2.28
2023-04-28T12:14:35.383Z,2.60
2023-04-28T12:17:04.079Z,2.30
2023-04-28T12:19:44.096Z,3.08
2023-04-28T12:22:12.309Z,1.92
2023-04-28T12:24:40.868Z,1.60
2023-04-28T12:27:21.552Z,1.98
2023-04-28T12:29:50.961Z,1.35
2023-04-28T12:32:20.164Z,1.65
2023-04-28T12:34:48.177Z,1.50
2023-04-28T12:37:16.859Z,1.92
2023-04-28T12:39:44.905Z,1.98
2023-04-28T12:42:13.130Z,2.33
2023-04-28T12:44:41.003Z,1.75
2023-04-28T12:47:11.720Z,2.07
2023-04-28T12:49:39.857Z,15.82
2023-04-28T12:52:07.916Z,1.42
2023-04-28T12:54:35.805Z,1.20
2023-04-28T12:57:04.017Z,1.58
2023-04-28T12:59:32.605Z,1.10
2023-04-28T13:02:00.538Z,1.30
2023-04-28T13:04:30.175Z,1.08
2023-04-28T13:06:58.865Z,1.10
2023-04-28T13:09:27.228Z,1.30
2023-04-28T13:11:55.102Z,0.90
2023-04-28T13:14:23.954Z,0.90
2023-04-28T13:16:53.074Z,1.55
2023-04-28T13:19:20.925Z,1.08
2023-04-28T13:21:50.468Z,0.90
2023-04-28T13:24:18.476Z,2.95
2023-04-28T13:26:46.295Z,1.20
2023-04-28T13:29:14.317Z,1.13
2023-04-28T13:31:42.255Z,1.10
2023-04-28T13:34:15.746Z,1.20
2023-04-28T13:36:43.876Z,2.78
2023-04-28T13:39:14.594Z,0.80
2023-04-28T13:41:42.850Z,1.48
2023-04-28T13:44:10.707Z,1.08
2023-04-28T13:46:38.593Z,1.20
2023-04-28T13:49:06.437Z,1.70
2023-04-28T13:51:34.278Z,0.70
2023-04-28T13:54:04.176Z,0.88
2023-04-28T13:56:33.579Z,1.00
2023-04-28T13:59:01.577Z,1.30
2023-04-28T14:01:29.809Z,2.00
2023-04-28T14:03:58.034Z,0.77
2023-04-28T14:06:26.248Z,0.80
2023-04-28T14:08:54.129Z,1.40
2023-04-28T14:11:22.570Z,1.55
2023-04-28T14:13:51.711Z,1.20
2023-04-28T14:16:19.618Z,0.70
2023-04-28T14:18:47.538Z,1.45
2023-04-28T14:21:15.323Z,2.10
2023-04-28T14:23:43.118Z,1.38
2023-04-28T14:26:10.997Z,0.80
2023-04-28T14:28:38.802Z,0.80
2023-04-28T14:31:08.676Z,0.80
2023-04-28T14:33:37.208Z,0.63
2023-04-28T14:36:06.006Z,0.70
2023-04-28T14:38:33.795Z,0.90
2023-04-28T14:41:01.631Z,1.10
2023-04-28T14:43:29.396Z,1.95
2023-04-28T14:45:57.209Z,1.48
2023-04-28T14:48:26.744Z,2.10
2023-04-28T14:50:56.113Z,0.80
2023-04-28T14:53:24.677Z,1.00
2023-04-28T14:55:52.558Z,0.85
2023-04-28T14:58:20.461Z,0.90
2023-04-28T15:00:48.488Z,0.70
2023-04-28T15:03:16.502Z,0.68
2023-04-28T15:05:45.867Z,0.70
2023-04-28T15:08:13.856Z,1.90
2023-04-28T15:10:42.131Z,0.93
2023-04-28T15:13:10.111Z,1.70
2023-04-28T15:15:38.069Z,0.90
2023-04-28T15:18:06.058Z,0.88
2023-04-28T15:20:37.184Z,2.60
2023-04-28T15:23:06.516Z,0.82
2023-04-28T15:25:34.305Z,1.00
2023-04-28T15:28:03.845Z,1.05
2023-04-28T15:30:32.191Z,0.85
2023-04-28T15:33:00.177Z,1.35
2023-04-28T15:35:28.665Z,1.25
2023-04-28T15:37:56.664Z,1.33
2023-04-28T15:40:25.847Z,1.00
2023-04-28T15:42:53.618Z,1.05
2023-04-28T15:45:22.583Z,1.30
2023-04-28T15:47:51.729Z,1.90
2023-04-28T15:50:20.708Z,1.13
2023-04-28T15:52:50.036Z,1.00
2023-04-28T15:55:19.725Z,0.80
2023-04-28T15:57:49.596Z,1.33
2023-04-28T16:00:17.602Z,2.80
2023-04-28T16:02:46.197Z,2.00
2023-04-28T16:05:23.690Z,2.15
2023-04-28T16:07:52.735Z,2.50
2023-04-28T16:10:20.578Z,3.13
2023-04-28T16:13:00.514Z,2.40
2023-04-28T16:15:28.872Z,1.70
2023-04-28T16:17:56.853Z,1.48
2023-04-28T16:20:24.980Z,3.15
2023-04-28T16:22:53.261Z,2.08
2023-04-28T16:25:21.147Z,2.63
2023-04-28T16:27:48.955Z,1.75
2023-04-28T16:30:18.576Z,1.80
2023-04-28T16:32:46.657Z,1.90
2023-04-28T16:35:15.433Z,2.38
2023-04-28T16:37:44.012Z,2.20
2023-04-28T16:40:13.181Z,2.40
2023-04-28T16:42:42.016Z,1.67
2023-04-28T16:45:11.088Z,1.67
2023-04-28T16:47:42.247Z,2.00
2023-04-28T16:50:11.325Z,1.67
2023-04-28T16:52:39.134Z,2.65
2023-04-28T16:55:08.159Z,1.70
2023-04-28T16:57:35.975Z,2.45
2023-04-28T17:00:04.349Z,5.07
2023-04-28T17:02:33.318Z,5.38
2023-04-28T17:05:02.560Z,3.53
2023-04-28T17:07:30.399Z,3.60
2023-04-28T17:09:58.364Z,6.00
2023-04-28T17:12:26.456Z,3.92
2023-04-28T17:14:54.543Z,6.13
2023-04-28T17:17:22.522Z,5.07
2023-04-28T17:19:50.600Z,3.87
2023-04-28T17:22:19.960Z,4.97
2023-04-28T17:24:47.799Z,4.28
2023-04-28T17:27:16.058Z,3.65
2023-04-28T17:29:44.283Z,4.65
2023-04-28T17:32:12.171Z,3.53
2023-04-28T17:34:41.003Z,4.15
2023-04-28T17:37:08.952Z,4.32
2023-04-28T17:39:38.707Z,4.30
2023-04-28T17:42:06.452Z,3.30
2023-04-28T17:44:34.244Z,2.60
2023-04-28T17:47:02.426Z,2.90
2023-04-28T17:49:30.238Z,2.80
2023-04-28T17:51:58.021Z,2.30
2023-04-28T17:54:26.067Z,2.00
2023-04-28T17:56:55.758Z,1.70
2023-04-28T17:59:23.578Z,2.90
2023-04-28T18:01:53.647Z,3.45
2023-04-28T18:04:21.671Z,2.13
2023-04-28T18:06:49.517Z,3.00
2023-04-28T18:09:17.749Z,3.33
2023-04-28T18:11:45.637Z,2.25
2023-04-28T18:14:18.073Z,2.25
2023-04-28T18:16:46.465Z,2.75
2023-04-28T18:19:14.519Z,3.63
2023-04-28T18:21:42.600Z,2.90
2023-04-28T18:24:10.397Z,3.47
2023-04-28T18:26:38.270Z,4.00
2023-04-28T18:29:06.110Z,5.35
2023-04-28T18:31:35.562Z,7.97
2023-04-28T18:34:05.009Z,7.20
2023-04-28T18:36:34.733Z,5.33
2023-04-28T18:39:06.292Z,5.40
2023-04-28T18:41:35.841Z,5.47
2023-04-28T18:44:04.318Z,4.72
2023-04-28T18:46:32.553Z,4.75
2023-04-28T18:49:03.406Z,6.05
2023-04-28T18:51:31.196Z,3.05
2023-04-28T18:53:59.504Z,3.20
2023-04-28T18:56:27.588Z,2.58
2023-04-28T18:58:55.415Z,3.95
2023-04-28T19:01:24.718Z,3.95
2023-04-28T19:03:53.515Z,2.50
2023-04-28T19:06:23.007Z,2.65
2023-04-28T19:08:50.862Z,3.05
2023-04-28T19:11:18.661Z,2.25
2023-04-28T19:13:46.509Z,2.03
2023-04-28T19:16:14.593Z,2.00
2023-04-28T19:18:42.699Z,3.47
2023-04-28T19:21:12.118Z,3.25
2023-04-28T19:23:41.663Z,2.20
2023-04-28T19:26:10.442Z,1.95
2023-04-28T19:28:38.323Z,3.50
2023-04-28T19:31:06.122Z,2.67
2023-04-28T19:33:34.250Z,5.17
2023-04-28T19:36:03.099Z,6.30
2023-04-28T19:38:30.887Z,3.60
2023-04-28T19:41:02.878Z,6.60
2023-04-28T19:43:31.478Z,7.30
2023-04-28T19:45:59.443Z,5.47
2023-04-28T19:48:27.315Z,4.10
2023-04-28T19:50:55.479Z,4.43
2023-04-28T19:53:23.490Z,3.75
2023-04-28T19:55:51.418Z,3.95
2023-04-28T19:58:21.287Z,4.32
2023-04-28T20:00:49.074Z,3.20
2023-04-28T20:03:17.555Z,2.90
2023-04-28T20:05:45.896Z,3.50
2023-04-28T20:08:13.730Z,4.03
2023-04-28T20:10:42.317Z,4.40
2023-04-28T20:13:10.075Z,2.70
2023-04-28T20:15:40.009Z,3.17
2023-04-28T20:18:07.961Z,2.78
2023-04-28T20:20:35.857Z,3.58
2023-04-28T20:23:03.656Z,4.47
2023-04-28T20:25:31.445Z,3.95
2023-04-28T20:27:59.307Z,3.60
2023-04-28T20:30:27.550Z,4.97
2023-04-28T20:32:56.728Z,3.75
2023-04-28T20:35:24.667Z,3.97
2023-04-28T20:37:53.199Z,4.53
2023-04-28T20:40:21.105Z,5.43
2023-04-28T20:42:49.452Z,4.20
2023-04-28T20:45:17.551Z,4.53
2023-04-28T20:47:45.570Z,3.03
2023-04-28T20:50:15.539Z,3.50
2023-04-28T20:52:43.403Z,3.63
2023-04-28T20:55:12.149Z,3.40
2023-04-28T20:57:40.266Z,3.97
2023-04-28T21:00:09.136Z,2.70
2023-04-28T21:02:37.886Z,2.95
2023-04-28T21:05:06.215Z,3.58
2023-04-28T21:07:35.520Z,3.17
2023-04-28T21:10:03.350Z,2.78
2023-04-28T21:12:31.233Z,2.63
2023-04-28T21:15:00.586Z,2.20
2023-04-28T21:17:28.445Z,2.38
2023-04-28T21:19:57.294Z,2.17
2023-04-28T21:22:26.047Z,2.72
2023-04-28T21:24:55.767Z,2.35
2023-04-28T21:27:23.961Z,2.35
2023-04-28T21:29:52.836Z,2.10
2023-04-28T21:32:20.904Z,2.10
2023-04-28T21:34:49.417Z,2.53
2023-04-28T21:37:17.160Z,1.70
2023-04-28T21:39:44.962Z,1.77
2023-04-28T21:42:14.133Z,2.00
2023-04-28T21:44:41.900Z,1.73
2023-04-28T21:47:09.742Z,1.80
2023-04-28T21:49:37.633Z,1.55
2023-04-28T21:52:05.564Z,1.93
2023-04-28T21:54:33.406Z,1.77
2023-04-28T21:57:01.841Z,2.20
2023-04-28T21:59:31.026Z,1.90
2023-04-28T22:01:59.538Z,1.40
2023-04-28T22:04:27.678Z,2.20
2023-04-28T22:06:56.392Z,1.43
2023-04-28T22:09:24.390Z,1.40
2023-04-28T22:11:52.201Z,1.85
2023-04-28T22:14:38.829Z,3.30
2023-04-28T22:17:09.378Z,1.70
2023-04-28T22:19:37.201Z,2.00
2023-04-28T22:22:05.571Z,1.45
2023-04-28T22:24:33.502Z,1.25
2023-04-28T22:27:01.359Z,0.90
2023-04-28T22:29:29.587Z,1.27
2023-04-28T22:31:58.512Z,1.23
2023-04-28T22:34:27.644Z,1.75
2023-04-28T22:36:55.472Z,1.40
2023-04-28T22:39:24.957Z,1.20
2023-04-28T22:41:52.842Z,1.20
2023-04-28T22:44:20.757Z,1.40
2023-04-28T22:46:48.684Z,1.67
2023-04-28T22:49:16.510Z,1.27
2023-04-28T22:51:45.638Z,2.65
2023-04-28T22:54:13.696Z,1.30
2023-04-28T22:56:42.079Z,2.25
2023-04-28T22:59:10.259Z,1.25
2023-04-28T23:01:38.221Z,2.10
2023-04-28T23:04:06.313Z,1.10
2023-04-28T23:06:34.269Z,1.20
2023-04-28T23:09:04.212Z,3.35
2023-04-28T23:11:32.000Z,1.20
2023-04-28T23:13:59.772Z,1.27
2023-04-28T23:16:27.573Z,1.33
2023-04-28T23:18:55.339Z,1.30
2023-04-28T23:21:23.431Z,1.10
2023-04-28T23:23:51.569Z,1.35
2023-04-28T23:26:20.822Z,1.13
2023-04-28T23:28:48.975Z,1.30
2023-04-28T23:31:16.887Z,1.17
2023-04-28T23:33:44.692Z,1.88
2023-04-28T23:36:14.004Z,1.25
2023-04-28T23:38:42.023Z,1.10
2023-04-28T23:41:09.793Z,1.42
2023-04-28T23:43:39.010Z,0.90
2023-04-28T23:46:06.963Z,1.10
2023-04-28T23:48:35.903Z,2.20
2023-04-28T23:51:03.679Z,1.10
2023-04-28T23:53:31.474Z,2.33
2023-04-28T23:55:59.274Z,1.35
2023-04-28T23:58:27.333Z,1.50
